Estación de Combarbala
Ultimos registro cada 15 minutos 54
| N° | Estación | Fecha / Hora | Temperatura | Humedad | Lluvia | Velocidad | Dirección | Radiación | Presion |
| 54 | Combarbala | 03-05-2026 13:15 | 30,7 | 12,5 | 0 | 0,5 | 243 | 635,6 | 909,9 |
| 53 | Combarbala | 03-05-2026 13:00 | 30,5 | 12,5 | 0 | 1 | 291 | 641,9 | 910 |
| 52 | Combarbala | 03-05-2026 12:45 | 30,3 | 12,5 | 0 | 1 | 323 | 645,6 | 910,1 |
| 51 | Combarbala | 03-05-2026 12:30 | 29,4 | 12,4 | 0 | 0,5 | 291 | 650,6 | 910,4 |
| 50 | Combarbala | 03-05-2026 12:15 | 29,6 | 11,9 | 0 | 0,5 | 345 | 641,9 | 910,6 |
| 49 | Combarbala | 03-05-2026 12:00 | 29,8 | 11,4 | 0 | 0,5 | 354 | 638,1 | 910,7 |
| 48 | Combarbala | 03-05-2026 11:45 | 29,2 | 10,9 | 0 | 0,5 | 337 | 629,4 | 910,7 |
| 47 | Combarbala | 03-05-2026 11:30 | 28,7 | 10,7 | 0 | 0,5 | 298 | 615,6 | 910,5 |
| 46 | Combarbala | 03-05-2026 11:15 | 28,7 | 11,1 | 0 | 0,5 | 314 | 598,1 | 910,5 |
| 45 | Combarbala | 03-05-2026 11:00 | 27,3 | 12,1 | 0 | 0 | 22 | 575,6 | 910,6 |
| 44 | Combarbala | 03-05-2026 10:45 | 27,3 | 12,1 | 0 | 0 | 37 | 548,1 | 910,7 |
| 43 | Combarbala | 03-05-2026 10:30 | 26,2 | 12,4 | 0 | 0 | 62 | 518,1 | 910,5 |
| 42 | Combarbala | 03-05-2026 10:15 | 26 | 12,8 | 0 | 0 | 67 | 485,6 | 910,8 |
| 41 | Combarbala | 03-05-2026 10:00 | 25,1 | 13,9 | 0 | 0 | 91 | 450,6 | 910,6 |
| 40 | Combarbala | 03-05-2026 09:45 | 24,6 | 13,4 | 0 | 0 | 119 | 413,1 | 910,7 |
| 39 | Combarbala | 03-05-2026 09:30 | 23,9 | 13 | 0 | 0 | 119 | 373,1 | 910,6 |
| 38 | Combarbala | 03-05-2026 09:15 | 21,6 | 14,7 | 0 | 0 | 119 | 331,9 | 910,7 |
| 37 | Combarbala | 03-05-2026 09:00 | 21,4 | 14,3 | 0 | 0 | 121 | 288,1 | 910,4 |
| 36 | Combarbala | 03-05-2026 08:45 | 20,9 | 17 | 0 | 0 | 121 | 244,4 | 910,5 |
| 35 | Combarbala | 03-05-2026 08:30 | 20,2 | 17,1 | 0 | 0 | 121 | 199,4 | 910,4 |
| 34 | Combarbala | 03-05-2026 08:15 | 18,1 | 18,9 | 0 | 0 | 121 | 155,6 | 910,5 |
| 33 | Combarbala | 03-05-2026 08:00 | 17 | 19 | 0 | 0 | 121 | 110,6 | 910,4 |
| 32 | Combarbala | 03-05-2026 07:45 | 14,4 | 21,4 | 0 | 0 | 121 | 10,6 | 910,3 |
| 31 | Combarbala | 03-05-2026 07:30 | 14,8 | 22 | 0 | 0 | 121 | 6,9 | 910,2 |
| 30 | Combarbala | 03-05-2026 07:15 | 14,8 | 22,2 | 0 | 0 | 121 | 1,9 | 910 |
| 29 | Combarbala | 03-05-2026 07:00 | 13,4 | 23,8 | 0 | 0 | 121 | 0,6 | 910,1 |
| 28 | Combarbala | 03-05-2026 06:45 | 13,7 | 24,4 | 0 | 0 | 121 | 0,6 | 910 |
| 27 | Combarbala | 03-05-2026 06:30 | 13,8 | 23,2 | 0 | 0 | 121 | 0,6 | 909,9 |
| 26 | Combarbala | 03-05-2026 06:15 | 14,3 | 24,1 | 0 | 0 | 121 | 0,6 | 909,8 |
| 25 | Combarbala | 03-05-2026 06:00 | 13,7 | 24,6 | 0 | 0 | 121 | 0,6 | 909,7 |
| 24 | Combarbala | 03-05-2026 05:45 | 14,4 | 23,7 | 0 | 0 | 121 | 0,6 | 909,6 |
| 23 | Combarbala | 03-05-2026 05:30 | 0 | 23,3 | 0 | 0 | 121 | 0,6 | 909,5 |
| 22 | Combarbala | 03-05-2026 05:15 | 0 | 27 | 0 | 0 | 121 | 0,6 | 909,4 |
| 21 | Combarbala | 03-05-2026 05:00 | 15,5 | 24,3 | 0 | 0,5 | 121 | 0,6 | 909,4 |
| 20 | Combarbala | 03-05-2026 04:45 | 15,7 | 23,9 | 0 | 0,5 | 135 | 0,6 | 909,4 |
| 19 | Combarbala | 03-05-2026 04:30 | 13,7 | 26,9 | 0 | 0 | 136 | 0,6 | 909,4 |
| 18 | Combarbala | 03-05-2026 04:15 | 13,3 | 28,6 | 0 | 0 | 136 | 0,6 | 909,4 |
| 17 | Combarbala | 03-05-2026 04:00 | 15 | 26,9 | 0 | 0 | 136 | 0,6 | 909,4 |
| 16 | Combarbala | 03-05-2026 03:45 | 14,7 | 27 | 0 | 0 | 136 | 0,6 | 909,4 |
| 15 | Combarbala | 03-05-2026 03:30 | 15,7 | 25,3 | 0 | 0 | 136 | 0,6 | 909,5 |
| 14 | Combarbala | 03-05-2026 03:15 | 16,2 | 25,2 | 0 | 0,5 | 136 | 0,6 | 909,6 |
| 13 | Combarbala | 03-05-2026 03:00 | 15,1 | 26,9 | 0 | 0 | 136 | 0,6 | 909,8 |
| 12 | Combarbala | 03-05-2026 02:45 | 15,1 | 26,8 | 0 | 0 | 136 | 0,6 | 909,8 |
| 11 | Combarbala | 03-05-2026 02:30 | 15,1 | 27,8 | 0 | 0 | 136 | 0,6 | 909,7 |
| 10 | Combarbala | 03-05-2026 02:15 | 15,6 | 27,6 | 0 | 0 | 136 | 0,6 | 909,7 |
| 9 | Combarbala | 03-05-2026 02:00 | 15,6 | 28,4 | 0 | 0 | 136 | 0,6 | 909,8 |
| 8 | Combarbala | 03-05-2026 01:45 | 15,5 | 28,6 | 0 | 0 | 136 | 0,6 | 909,9 |
| 7 | Combarbala | 03-05-2026 01:30 | 15,7 | 27,8 | 0 | 0 | 136 | 0,6 | 909,9 |
| 6 | Combarbala | 03-05-2026 01:15 | 15,9 | 27,3 | 0 | 0 | 136 | 0,6 | 910,1 |
| 5 | Combarbala | 03-05-2026 01:00 | 15,7 | 28,4 | 0 | 0 | 136 | 0,6 | 910,2 |
| 4 | Combarbala | 03-05-2026 00:45 | 16 | 28,5 | 0 | 0 | 136 | 0,6 | 910,3 |
| 3 | Combarbala | 03-05-2026 00:30 | 16,2 | 28,7 | 0 | 0 | 136 | 0,6 | 910,4 |
| 2 | Combarbala | 03-05-2026 00:15 | 16 | 28,7 | 0 | 0 | 136 | 0,6 | 910,4 |
| 1 | Combarbala | 03-05-2026 00:00 | 18,1 | 26,1 | 0 | 0,5 | 136 | 0,6 | 910,4 |